sensor_id;sensor_type;location;lat;lon;timestamp;temperature;humidity
16477;DHT22;8349;50.928;6.376;2022-11-20T04:03:02;3.40;99.90
16477;DHT22;8349;50.928;6.376;2022-11-20T04:05:29;3.40;99.90
16477;DHT22;8349;50.928;6.376;2022-11-20T04:07:55;3.40;99.90
16477;DHT22;8349;50.928;6.376;2022-11-20T04:10:22;3.40;99.90
16477;DHT22;8349;50.928;6.376;2022-11-20T04:12:49;3.40;99.90
16477;DHT22;8349;50.928;6.376;2022-11-20T04:15:16;3.40;99.90
16477;DHT22;8349;50.928;6.376;2022-11-20T04:17:43;3.40;99.90
16477;DHT22;8349;50.928;6.376;2022-11-20T04:22:39;3.40;99.90
16477;DHT22;8349;50.928;6.376;2022-11-20T04:25:06;3.40;99.90
16477;DHT22;8349;50.928;6.376;2022-11-20T04:27:33;3.40;99.90
16477;DHT22;8349;50.928;6.376;2022-11-20T04:29:59;3.40;99.90
16477;DHT22;8349;50.928;6.376;2022-11-20T04:32:26;3.30;99.90
16477;DHT22;8349;50.928;6.376;2022-11-20T04:34:53;3.30;99.90
16477;DHT22;8349;50.928;6.376;2022-11-20T04:37:19;3.30;99.90
16477;DHT22;8349;50.928;6.376;2022-11-20T04:39:48;3.40;99.90
16477;DHT22;8349;50.928;6.376;2022-11-20T04:42:14;3.40;99.90
16477;DHT22;8349;50.928;6.376;2022-11-20T04:44:56;3.40;99.90
16477;DHT22;8349;50.928;6.376;2022-11-20T04:47:23;3.40;99.90
16477;DHT22;8349;50.928;6.376;2022-11-20T04:49:50;3.40;99.90
16477;DHT22;8349;50.928;6.376;2022-11-20T04:52:17;3.40;99.90
16477;DHT22;8349;50.928;6.376;2022-11-20T04:54:43;3.40;99.90
16477;DHT22;8349;50.928;6.376;2022-11-20T04:57:13;3.40;99.90
16477;DHT22;8349;50.928;6.376;2022-11-20T04:59:41;3.50;99.90
16477;DHT22;8349;50.928;6.376;2022-11-20T05:02:07;3.50;99.90
16477;DHT22;8349;50.928;6.376;2022-11-20T05:04:34;3.50;99.90
16477;DHT22;8349;50.928;6.376;2022-11-20T05:07:01;3.50;99.90
16477;DHT22;8349;50.928;6.376;2022-11-20T05:09:28;3.50;99.90
16477;DHT22;8349;50.928;6.376;2022-11-20T05:11:55;3.60;99.90
16477;DHT22;8349;50.928;6.376;2022-11-20T05:14:23;3.60;99.90
16477;DHT22;8349;50.928;6.376;2022-11-20T05:16:50;3.60;99.90
16477;DHT22;8349;50.928;6.376;2022-11-20T05:19:16;3.60;99.90
16477;DHT22;8349;50.928;6.376;2022-11-20T05:21:43;3.60;99.90
16477;DHT22;8349;50.928;6.376;2022-11-20T05:24:10;3.60;99.90
16477;DHT22;8349;50.928;6.376;2022-11-20T05:26:37;3.60;99.90
16477;DHT22;8349;50.928;6.376;2022-11-20T05:29:03;3.60;99.90
16477;DHT22;8349;50.928;6.376;2022-11-20T05:31:32;3.60;99.90
16477;DHT22;8349;50.928;6.376;2022-11-20T05:33:58;3.70;99.90
16477;DHT22;8349;50.928;6.376;2022-11-20T05:36:25;3.70;99.90
16477;DHT22;8349;50.928;6.376;2022-11-20T05:38:52;3.70;99.90
16477;DHT22;8349;50.928;6.376;2022-11-20T05:41:19;3.70;99.90
16477;DHT22;8349;50.928;6.376;2022-11-20T05:43:47;3.70;99.90
16477;DHT22;8349;50.928;6.376;2022-11-20T05:46:14;3.70;99.90
16477;DHT22;8349;50.928;6.376;2022-11-20T05:48:43;3.80;99.90
16477;DHT22;8349;50.928;6.376;2022-11-20T05:51:11;3.70;99.90
16477;DHT22;8349;50.928;6.376;2022-11-20T05:53:38;3.80;99.90
16477;DHT22;8349;50.928;6.376;2022-11-20T05:56:06;3.70;99.90
16477;DHT22;8349;50.928;6.376;2022-11-20T05:58:33;3.80;99.90
16477;DHT22;8349;50.928;6.376;2022-11-20T06:01:04;3.80;99.90
16477;DHT22;8349;50.928;6.376;2022-11-20T06:03:31;3.80;99.90
16477;DHT22;8349;50.928;6.376;2022-11-20T06:05:59;3.80;99.90
16477;DHT22;8349;50.928;6.376;2022-11-20T06:08:26;3.80;99.90
16477;DHT22;8349;50.928;6.376;2022-11-20T06:10:53;3.80;99.90
16477;DHT22;8349;50.928;6.376;2022-11-20T06:13:19;3.80;99.90
16477;DHT22;8349;50.928;6.376;2022-11-20T06:15:48;3.80;99.90
16477;DHT22;8349;50.928;6.376;2022-11-20T06:18:14;3.80;99.90
16477;DHT22;8349;50.928;6.376;2022-11-20T06:20:41;3.80;99.90
16477;DHT22;8349;50.928;6.376;2022-11-20T06:23:09;3.80;99.90
16477;DHT22;8349;50.928;6.376;2022-11-20T06:25:37;3.80;99.90
16477;DHT22;8349;50.928;6.376;2022-11-20T06:28:03;3.80;99.90
16477;DHT22;8349;50.928;6.376;2022-11-20T06:30:30;3.80;99.90
16477;DHT22;8349;50.928;6.376;2022-11-20T06:32:57;3.80;99.90
16477;DHT22;8349;50.928;6.376;2022-11-20T06:35:24;3.70;99.90
16477;DHT22;8349;50.928;6.376;2022-11-20T06:37:51;3.70;99.90
16477;DHT22;8349;50.928;6.376;2022-11-20T06:40:19;3.70;99.90
16477;DHT22;8349;50.928;6.376;2022-11-20T06:42:46;3.70;99.90
16477;DHT22;8349;50.928;6.376;2022-11-20T06:45:12;3.60;99.90
16477;DHT22;8349;50.928;6.376;2022-11-20T06:47:39;3.60;99.90
16477;DHT22;8349;50.928;6.376;2022-11-20T06:50:06;3.50;99.90
16477;DHT22;8349;50.928;6.376;2022-11-20T06:52:33;3.50;99.90
16477;DHT22;8349;50.928;6.376;2022-11-20T06:55:00;3.50;99.90
16477;DHT22;8349;50.928;6.376;2022-11-20T06:57:28;3.60;99.90
16477;DHT22;8349;50.928;6.376;2022-11-20T06:59:55;3.50;99.90
16477;DHT22;8349;50.928;6.376;2022-11-20T07:02:21;3.60;99.90
16477;DHT22;8349;50.928;6.376;2022-11-20T07:04:48;3.50;99.90
16477;DHT22;8349;50.928;6.376;2022-11-20T07:07:15;3.50;99.90
16477;DHT22;8349;50.928;6.376;2022-11-20T07:09:42;3.60;99.90
16477;DHT22;8349;50.928;6.376;2022-11-20T07:12:08;3.50;99.90
16477;DHT22;8349;50.928;6.376;2022-11-20T07:14:36;3.50;99.90
16477;DHT22;8349;50.928;6.376;2022-11-20T07:17:03;3.50;99.90
16477;DHT22;8349;50.928;6.376;2022-11-20T07:19:30;3.50;99.90
16477;DHT22;8349;50.928;6.376;2022-11-20T07:21:57;3.50;99.90
16477;DHT22;8349;50.928;6.376;2022-11-20T07:24:23;3.50;99.90
16477;DHT22;8349;50.928;6.376;2022-11-20T07:26:50;3.50;99.90
16477;DHT22;8349;50.928;6.376;2022-11-20T07:29:17;3.50;99.90
16477;DHT22;8349;50.928;6.376;2022-11-20T07:31:45;3.50;99.90
16477;DHT22;8349;50.928;6.376;2022-11-20T07:34:12;3.50;99.90
16477;DHT22;8349;50.928;6.376;2022-11-20T07:36:39;3.60;99.90
16477;DHT22;8349;50.928;6.376;2022-11-20T07:39:06;3.60;99.90
16477;DHT22;8349;50.928;6.376;2022-11-20T07:41:32;3.60;99.90
16477;DHT22;8349;50.928;6.376;2022-11-20T07:43:59;3.60;99.90
16477;DHT22;8349;50.928;6.376;2022-11-20T07:46:26;3.70;99.90
16477;DHT22;8349;50.928;6.376;2022-11-20T07:48:54;3.70;99.90
16477;DHT22;8349;50.928;6.376;2022-11-20T07:51:21;3.70;99.90
16477;DHT22;8349;50.928;6.376;2022-11-20T07:53:50;3.80;99.90
16477;DHT22;8349;50.928;6.376;2022-11-20T07:56:16;3.90;99.90
16477;DHT22;8349;50.928;6.376;2022-11-20T07:58:43;3.90;99.90
16477;DHT22;8349;50.928;6.376;2022-11-20T08:01:10;3.90;99.90
16477;DHT22;8349;50.928;6.376;2022-11-20T08:03:37;4.00;99.90
16477;DHT22;8349;50.928;6.376;2022-11-20T08:06:05;4.10;99.90
16477;DHT22;8349;50.928;6.376;2022-11-20T08:08:32;4.10;99.90
16477;DHT22;8349;50.928;6.376;2022-11-20T08:10:59;4.10;99.90
16477;DHT22;8349;50.928;6.376;2022-11-20T08:13:40;4.10;99.90
16477;DHT22;8349;50.928;6.376;2022-11-20T08:16:24;4.10;99.90
16477;DHT22;8349;50.928;6.376;2022-11-20T08:18:51;4.00;99.90
16477;DHT22;8349;50.928;6.376;2022-11-20T08:21:19;4.00;99.90
16477;DHT22;8349;50.928;6.376;2022-11-20T08:23:46;4.10;99.90
16477;DHT22;8349;50.928;6.376;2022-11-20T08:26:12;4.10;99.90
16477;DHT22;8349;50.928;6.376;2022-11-20T08:28:39;4.20;99.90
16477;DHT22;8349;50.928;6.376;2022-11-20T08:31:06;4.10;99.90
16477;DHT22;8349;50.928;6.376;2022-11-20T08:33:35;4.10;99.90
16477;DHT22;8349;50.928;6.376;2022-11-20T08:36:02;4.10;99.90
16477;DHT22;8349;50.928;6.376;2022-11-20T08:38:31;4.10;99.90
16477;DHT22;8349;50.928;6.376;2022-11-20T08:40:58;4.00;99.90
16477;DHT22;8349;50.928;6.376;2022-11-20T08:43:43;4.00;99.90
16477;DHT22;8349;50.928;6.376;2022-11-20T08:46:10;4.00;99.90
16477;DHT22;8349;50.928;6.376;2022-11-20T08:48:36;4.00;99.90
16477;DHT22;8349;50.928;6.376;2022-11-20T08:51:03;4.10;99.90
16477;DHT22;8349;50.928;6.376;2022-11-20T08:53:31;4.10;99.90
16477;DHT22;8349;50.928;6.376;2022-11-20T08:55:58;4.10;99.90
16477;DHT22;8349;50.928;6.376;2022-11-20T08:58:25;4.10;99.90
16477;DHT22;8349;50.928;6.376;2022-11-20T09:00:52;4.20;99.90
16477;DHT22;8349;50.928;6.376;2022-11-20T09:03:19;4.30;99.90
16477;DHT22;8349;50.928;6.376;2022-11-20T09:05:46;4.50;99.90
16477;DHT22;8349;50.928;6.376;2022-11-20T09:08:13;4.50;99.90
16477;DHT22;8349;50.928;6.376;2022-11-20T09:10:41;4.60;99.90
16477;DHT22;8349;50.928;6.376;2022-11-20T09:13:08;4.80;99.90
16477;DHT22;8349;50.928;6.376;2022-11-20T09:15:35;5.10;99.90
16477;DHT22;8349;50.928;6.376;2022-11-20T09:18:02;5.20;99.90
16477;DHT22;8349;50.928;6.376;2022-11-20T09:20:30;5.60;99.90
16477;DHT22;8349;50.928;6.376;2022-11-20T09:22:57;5.90;99.90
16477;DHT22;8349;50.928;6.376;2022-11-20T09:25:24;6.10;99.90
16477;DHT22;8349;50.928;6.376;2022-11-20T09:27:56;6.10;99.90
16477;DHT22;8349;50.928;6.376;2022-11-20T09:30:23;5.90;99.90
16477;DHT22;8349;50.928;6.376;2022-11-20T09:32:50;5.80;99.90
16477;DHT22;8349;50.928;6.376;2022-11-20T09:35:17;5.60;99.90
16477;DHT22;8349;50.928;6.376;2022-11-20T09:37:44;5.50;99.90
16477;DHT22;8349;50.928;6.376;2022-11-20T09:40:17;5.20;99.90
16477;DHT22;8349;50.928;6.376;2022-11-20T09:42:47;5.10;99.90
16477;DHT22;8349;50.928;6.376;2022-11-20T09:45:23;5.20;99.90
16477;DHT22;8349;50.928;6.376;2022-11-20T09:47:54;5.20;99.90
16477;DHT22;8349;50.928;6.376;2022-11-20T09:50:26;5.30;99.90
16477;DHT22;8349;50.928;6.376;2022-11-20T09:52:58;5.40;99.90
16477;DHT22;8349;50.928;6.376;2022-11-20T09:55:26;5.50;99.90
16477;DHT22;8349;50.928;6.376;2022-11-20T09:57:55;5.50;99.90
16477;DHT22;8349;50.928;6.376;2022-11-20T10:00:24;5.60;99.90
16477;DHT22;8349;50.928;6.376;2022-11-20T10:02:52;5.60;99.90
16477;DHT22;8349;50.928;6.376;2022-11-20T10:05:22;5.50;99.90
16477;DHT22;8349;50.928;6.376;2022-11-20T10:07:52;5.50;99.90
16477;DHT22;8349;50.928;6.376;2022-11-20T10:10:22;5.50;99.90
16477;DHT22;8349;50.928;6.376;2022-11-20T10:12:58;5.50;99.90
16477;DHT22;8349;50.928;6.376;2022-11-20T10:15:32;5.50;99.90
16477;DHT22;8349;50.928;6.376;2022-11-20T10:18:09;5.50;99.90
16477;DHT22;8349;50.928;6.376;2022-11-20T10:20:40;5.50;99.90
16477;DHT22;8349;50.928;6.376;2022-11-20T10:23:20;5.50;99.90
16477;DHT22;8349;50.928;6.376;2022-11-20T10:25:54;5.50;99.90
16477;DHT22;8349;50.928;6.376;2022-11-20T10:28:25;5.50;99.90
16477;DHT22;8349;50.928;6.376;2022-11-20T10:30:57;5.50;99.90
16477;DHT22;8349;50.928;6.376;2022-11-20T10:33:26;5.50;99.90
16477;DHT22;8349;50.928;6.376;2022-11-20T10:35:55;5.50;99.90
16477;DHT22;8349;50.928;6.376;2022-11-20T10:38:29;5.60;99.90
16477;DHT22;8349;50.928;6.376;2022-11-20T10:41:00;5.50;99.90
16477;DHT22;8349;50.928;6.376;2022-11-20T10:43:41;5.50;99.90
16477;DHT22;8349;50.928;6.376;2022-11-20T10:46:10;5.50;99.90
16477;DHT22;8349;50.928;6.376;2022-11-20T10:48:38;5.50;99.90
16477;DHT22;8349;50.928;6.376;2022-11-20T10:51:15;5.50;99.90
16477;DHT22;8349;50.928;6.376;2022-11-20T10:53:54;5.50;99.90
16477;DHT22;8349;50.928;6.376;2022-11-20T10:56:23;5.60;99.90
16477;DHT22;8349;50.928;6.376;2022-11-20T10:58:54;5.60;99.90
16477;DHT22;8349;50.928;6.376;2022-11-20T11:01:27;5.70;99.90
16477;DHT22;8349;50.928;6.376;2022-11-20T11:03:54;5.70;99.90
16477;DHT22;8349;50.928;6.376;2022-11-20T11:06:22;5.80;99.90
16477;DHT22;8349;50.928;6.376;2022-11-20T11:08:51;5.80;99.90
16477;DHT22;8349;50.928;6.376;2022-11-20T11:11:21;5.90;99.90
16477;DHT22;8349;50.928;6.376;2022-11-20T11:13:48;5.90;99.90
16477;DHT22;8349;50.928;6.376;2022-11-20T11:16:22;5.90;99.90
16477;DHT22;8349;50.928;6.376;2022-11-20T11:18:51;5.90;99.90
16477;DHT22;8349;50.928;6.376;2022-11-20T11:21:21;5.90;99.90
16477;DHT22;8349;50.928;6.376;2022-11-20T11:23:57;5.90;99.90
16477;DHT22;8349;50.928;6.376;2022-11-20T11:26:24;5.80;99.90
16477;DHT22;8349;50.928;6.376;2022-11-20T11:28:54;5.80;99.90
16477;DHT22;8349;50.928;6.376;2022-11-20T11:31:22;5.70;99.90
16477;DHT22;8349;50.928;6.376;2022-11-20T11:33:51;5.70;99.90
16477;DHT22;8349;50.928;6.376;2022-11-20T11:36:19;5.70;99.90
16477;DHT22;8349;50.928;6.376;2022-11-20T11:38:48;5.60;99.90
16477;DHT22;8349;50.928;6.376;2022-11-20T11:41:20;5.60;99.90
16477;DHT22;8349;50.928;6.376;2022-11-20T11:43:50;5.70;99.90
16477;DHT22;8349;50.928;6.376;2022-11-20T11:46:34;5.80;99.90
16477;DHT22;8349;50.928;6.376;2022-11-20T11:49:11;5.90;99.90
16477;DHT22;8349;50.928;6.376;2022-11-20T11:51:42;6.00;99.90
16477;DHT22;8349;50.928;6.376;2022-11-20T11:54:14;6.00;99.90
16477;DHT22;8349;50.928;6.376;2022-11-20T11:56:42;6.10;99.90
16477;DHT22;8349;50.928;6.376;2022-11-20T11:59:09;6.10;99.90
16477;DHT22;8349;50.928;6.376;2022-11-20T12:01:41;6.10;99.90
16477;DHT22;8349;50.928;6.376;2022-11-20T12:04:13;6.10;99.90
16477;DHT22;8349;50.928;6.376;2022-11-20T12:06:42;6.10;99.90
16477;DHT22;8349;50.928;6.376;2022-11-20T12:09:10;6.10;99.90
16477;DHT22;8349;50.928;6.376;2022-11-20T12:11:37;6.10;99.90
16477;DHT22;8349;50.928;6.376;2022-11-20T12:14:09;6.20;99.90
16477;DHT22;8349;50.928;6.376;2022-11-20T12:16:38;6.30;99.90
16477;DHT22;8349;50.928;6.376;2022-11-20T12:19:07;6.30;99.90
16477;DHT22;8349;50.928;6.376;2022-11-20T12:21:38;6.40;99.90
16477;DHT22;8349;50.928;6.376;2022-11-20T12:26:54;6.50;99.90
16477;DHT22;8349;50.928;6.376;2022-11-20T12:29:27;6.60;99.90
16477;DHT22;8349;50.928;6.376;2022-11-20T12:31:59;6.60;99.90
16477;DHT22;8349;50.928;6.376;2022-11-20T12:34:36;6.60;99.90
16477;DHT22;8349;50.928;6.376;2022-11-20T12:37:09;6.40;99.90
16477;DHT22;8349;50.928;6.376;2022-11-20T12:39:39;6.40;99.90
16477;DHT22;8349;50.928;6.376;2022-11-20T12:42:20;6.40;99.90
16477;DHT22;8349;50.928;6.376;2022-11-20T12:45:10;6.30;99.90
16477;DHT22;8349;50.928;6.376;2022-11-20T12:50:28;6.20;99.90
16477;DHT22;8349;50.928;6.376;2022-11-20T12:53:00;6.20;99.90
16477;DHT22;8349;50.928;6.376;2022-11-20T12:55:33;6.30;99.90
16477;DHT22;8349;50.928;6.376;2022-11-20T12:58:04;6.30;99.90
16477;DHT22;8349;50.928;6.376;2022-11-20T13:00:32;6.40;99.90
16477;DHT22;8349;50.928;6.376;2022-11-20T13:03:05;6.40;99.90
16477;DHT22;8349;50.928;6.376;2022-11-20T13:05:36;6.40;99.90
16477;DHT22;8349;50.928;6.376;2022-11-20T13:08:05;6.30;99.90
16477;DHT22;8349;50.928;6.376;2022-11-20T13:10:35;6.30;99.90
16477;DHT22;8349;50.928;6.376;2022-11-20T13:13:05;6.40;99.90
16477;DHT22;8349;50.928;6.376;2022-11-20T13:15:41;6.40;99.90
16477;DHT22;8349;50.928;6.376;2022-11-20T13:18:11;6.50;99.90
16477;DHT22;8349;50.928;6.376;2022-11-20T13:20:41;6.50;99.90
16477;DHT22;8349;50.928;6.376;2022-11-20T13:23:10;6.50;99.90
16477;DHT22;8349;50.928;6.376;2022-11-20T13:25:37;6.60;99.90
16477;DHT22;8349;50.928;6.376;2022-11-20T13:28:05;6.60;99.90
16477;DHT22;8349;50.928;6.376;2022-11-20T13:30:52;6.70;99.90
16477;DHT22;8349;50.928;6.376;2022-11-20T13:33:22;6.80;99.90
16477;DHT22;8349;50.928;6.376;2022-11-20T13:35:54;6.90;99.90
16477;DHT22;8349;50.928;6.376;2022-11-20T13:38:23;7.00;99.90
16477;DHT22;8349;50.928;6.376;2022-11-20T13:40:50;7.20;99.90
16477;DHT22;8349;50.928;6.376;2022-11-20T13:43:20;7.20;99.90
16477;DHT22;8349;50.928;6.376;2022-11-20T13:45:54;7.20;99.90
16477;DHT22;8349;50.928;6.376;2022-11-20T13:48:22;7.10;99.90
16477;DHT22;8349;50.928;6.376;2022-11-20T13:50:54;7.00;99.90
16477;DHT22;8349;50.928;6.376;2022-11-20T13:53:26;6.90;99.90
16477;DHT22;8349;50.928;6.376;2022-11-20T13:55:59;6.80;99.90
16477;DHT22;8349;50.928;6.376;2022-11-20T13:58:29;6.70;99.90
16477;DHT22;8349;50.928;6.376;2022-11-20T14:01:00;6.60;99.90
16477;DHT22;8349;50.928;6.376;2022-11-20T14:03:28;6.50;99.90
16477;DHT22;8349;50.928;6.376;2022-11-20T14:05:58;6.50;99.90
16477;DHT22;8349;50.928;6.376;2022-11-20T14:08:31;6.50;99.90
16477;DHT22;8349;50.928;6.376;2022-11-20T14:11:04;6.50;99.90
16477;DHT22;8349;50.928;6.376;2022-11-20T14:13:31;6.50;99.90
16477;DHT22;8349;50.928;6.376;2022-11-20T14:15:58;6.50;99.90
16477;DHT22;8349;50.928;6.376;2022-11-20T14:18:25;6.50;99.90
16477;DHT22;8349;50.928;6.376;2022-11-20T14:20:52;6.40;99.90
16477;DHT22;8349;50.928;6.376;2022-11-20T14:23:23;6.40;99.90
16477;DHT22;8349;50.928;6.376;2022-11-20T14:25:51;6.30;99.90
16477;DHT22;8349;50.928;6.376;2022-11-20T14:28:20;6.20;99.90
16477;DHT22;8349;50.928;6.376;2022-11-20T14:30:49;6.20;99.90
16477;DHT22;8349;50.928;6.376;2022-11-20T14:33:16;6.20;99.90
16477;DHT22;8349;50.928;6.376;2022-11-20T14:35:45;6.10;99.90
16477;DHT22;8349;50.928;6.376;2022-11-20T14:38:13;6.10;99.90
16477;DHT22;8349;50.928;6.376;2022-11-20T14:40:40;6.10;99.90
16477;DHT22;8349;50.928;6.376;2022-11-20T14:43:17;6.10;99.90
16477;DHT22;8349;50.928;6.376;2022-11-20T14:45:44;6.10;99.90
16477;DHT22;8349;50.928;6.376;2022-11-20T14:48:12;6.00;99.90
16477;DHT22;8349;50.928;6.376;2022-11-20T14:50:39;6.00;99.90
16477;DHT22;8349;50.928;6.376;2022-11-20T14:53:06;6.00;99.90
16477;DHT22;8349;50.928;6.376;2022-11-20T14:55:33;6.00;99.90
16477;DHT22;8349;50.928;6.376;2022-11-20T14:58:01;6.00;99.90
16477;DHT22;8349;50.928;6.376;2022-11-20T15:00:30;6.00;99.90
16477;DHT22;8349;50.928;6.376;2022-11-20T15:02:57;5.90;99.90
16477;DHT22;8349;50.928;6.376;2022-11-20T15:05:25;6.00;99.90
16477;DHT22;8349;50.928;6.376;2022-11-20T15:07:52;6.00;99.90
16477;DHT22;8349;50.928;6.376;2022-11-20T15:10:30;6.00;99.90
16477;DHT22;8349;50.928;6.376;2022-11-20T15:12:58;6.10;99.90
16477;DHT22;8349;50.928;6.376;2022-11-20T15:15:27;6.10;99.90
16477;DHT22;8349;50.928;6.376;2022-11-20T15:17:57;6.10;99.90
16477;DHT22;8349;50.928;6.376;2022-11-20T15:20:25;6.10;99.90
16477;DHT22;8349;50.928;6.376;2022-11-20T15:22:53;6.10;99.90
16477;DHT22;8349;50.928;6.376;2022-11-20T15:25:20;6.10;99.90
16477;DHT22;8349;50.928;6.376;2022-11-20T15:27:48;6.10;99.90
16477;DHT22;8349;50.928;6.376;2022-11-20T15:30:17;6.10;99.90
16477;DHT22;8349;50.928;6.376;2022-11-20T15:32:44;6.10;99.90
16477;DHT22;8349;50.928;6.376;2022-11-20T15:35:13;6.10;99.90
16477;DHT22;8349;50.928;6.376;2022-11-20T15:37:40;6.10;99.90
16477;DHT22;8349;50.928;6.376;2022-11-20T15:40:07;6.10;99.90
16477;DHT22;8349;50.928;6.376;2022-11-20T15:42:34;6.10;99.90
16477;DHT22;8349;50.928;6.376;2022-11-20T15:45:01;6.10;99.90
16477;DHT22;8349;50.928;6.376;2022-11-20T15:47:29;6.10;99.90
16477;DHT22;8349;50.928;6.376;2022-11-20T15:49:57;6.10;99.90
16477;DHT22;8349;50.928;6.376;2022-11-20T15:52:25;6.10;99.90
16477;DHT22;8349;50.928;6.376;2022-11-20T15:54:52;6.10;99.90
16477;DHT22;8349;50.928;6.376;2022-11-20T15:57:19;6.10;99.90
16477;DHT22;8349;50.928;6.376;2022-11-20T15:59:48;6.10;99.90
16477;DHT22;8349;50.928;6.376;2022-11-20T16:02:15;6.10;99.90
16477;DHT22;8349;50.928;6.376;2022-11-20T16:04:42;6.10;99.90
16477;DHT22;8349;50.928;6.376;2022-11-20T16:07:09;6.20;99.90
16477;DHT22;8349;50.928;6.376;2022-11-20T16:09:37;6.20;99.90
16477;DHT22;8349;50.928;6.376;2022-11-20T16:12:04;6.10;99.90
16477;DHT22;8349;50.928;6.376;2022-11-20T16:14:31;6.10;99.90
16477;DHT22;8349;50.928;6.376;2022-11-20T16:17:15;6.10;99.90
16477;DHT22;8349;50.928;6.376;2022-11-20T16:20:02;6.10;99.90
16477;DHT22;8349;50.928;6.376;2022-11-20T16:22:29;6.10;99.90
16477;DHT22;8349;50.928;6.376;2022-11-20T16:24:57;6.00;99.90
16477;DHT22;8349;50.928;6.376;2022-11-20T16:27:24;6.10;99.90
16477;DHT22;8349;50.928;6.376;2022-11-20T16:29:51;6.10;99.90
16477;DHT22;8349;50.928;6.376;2022-11-20T16:32:17;6.10;99.90
16477;DHT22;8349;50.928;6.376;2022-11-20T16:34:44;6.10;99.90
16477;DHT22;8349;50.928;6.376;2022-11-20T16:37:11;6.10;99.90
16477;DHT22;8349;50.928;6.376;2022-11-20T16:39:38;6.10;99.90
16477;DHT22;8349;50.928;6.376;2022-11-20T16:42:06;6.20;99.90
16477;DHT22;8349;50.928;6.376;2022-11-20T16:44:33;6.20;99.90
16477;DHT22;8349;50.928;6.376;2022-11-20T16:47:00;6.20;99.90
16477;DHT22;8349;50.928;6.376;2022-11-20T16:49:27;6.20;99.90
16477;DHT22;8349;50.928;6.376;2022-11-20T16:51:53;6.20;99.90
16477;DHT22;8349;50.928;6.376;2022-11-20T16:54:20;6.20;99.90
16477;DHT22;8349;50.928;6.376;2022-11-20T16:56:47;6.20;99.90
16477;DHT22;8349;50.928;6.376;2022-11-20T16:59:17;6.20;99.90
16477;DHT22;8349;50.928;6.376;2022-11-20T17:01:44;6.20;99.90
16477;DHT22;8349;50.928;6.376;2022-11-20T17:04:11;6.30;99.90
16477;DHT22;8349;50.928;6.376;2022-11-20T17:06:39;6.20;99.90
16477;DHT22;8349;50.928;6.376;2022-11-20T17:09:08;6.30;99.90
16477;DHT22;8349;50.928;6.376;2022-11-20T17:11:38;6.30;99.90
16477;DHT22;8349;50.928;6.376;2022-11-20T17:14:05;6.40;99.90
16477;DHT22;8349;50.928;6.376;2022-11-20T17:16:34;6.40;99.90
16477;DHT22;8349;50.928;6.376;2022-11-20T17:19:02;6.40;99.90
16477;DHT22;8349;50.928;6.376;2022-11-20T17:21:29;6.50;99.90
16477;DHT22;8349;50.928;6.376;2022-11-20T17:23:58;6.50;99.90
16477;DHT22;8349;50.928;6.376;2022-11-20T17:26:25;6.50;99.90
16477;DHT22;8349;50.928;6.376;2022-11-20T17:28:54;6.60;99.90
16477;DHT22;8349;50.928;6.376;2022-11-20T17:31:21;6.60;99.90
16477;DHT22;8349;50.928;6.376;2022-11-20T17:33:49;6.70;99.90
16477;DHT22;8349;50.928;6.376;2022-11-20T17:36:17;6.80;99.90
16477;DHT22;8349;50.928;6.376;2022-11-20T17:38:44;6.90;99.90
16477;DHT22;8349;50.928;6.376;2022-11-20T17:41:11;6.90;99.90
16477;DHT22;8349;50.928;6.376;2022-11-20T17:43:39;7.00;99.90
16477;DHT22;8349;50.928;6.376;2022-11-20T17:46:07;7.00;99.90
16477;DHT22;8349;50.928;6.376;2022-11-20T17:48:34;7.10;99.90
16477;DHT22;8349;50.928;6.376;2022-11-20T17:51:03;7.20;99.90
16477;DHT22;8349;50.928;6.376;2022-11-20T17:53:32;7.20;99.90
16477;DHT22;8349;50.928;6.376;2022-11-20T17:55:59;7.30;99.90
16477;DHT22;8349;50.928;6.376;2022-11-20T17:58:43;7.40;99.90
16477;DHT22;8349;50.928;6.376;2022-11-20T18:01:10;7.50;99.90
16477;DHT22;8349;50.928;6.376;2022-11-20T18:03:37;7.50;99.90
16477;DHT22;8349;50.928;6.376;2022-11-20T18:06:09;7.60;99.90
16477;DHT22;8349;50.928;6.376;2022-11-20T18:08:36;7.60;99.90
16477;DHT22;8349;50.928;6.376;2022-11-20T18:11:22;7.60;99.90
16477;DHT22;8349;50.928;6.376;2022-11-20T18:13:50;7.60;99.90
16477;DHT22;8349;50.928;6.376;2022-11-20T18:16:35;7.60;99.90
16477;DHT22;8349;50.928;6.376;2022-11-20T18:19:02;7.60;99.90
16477;DHT22;8349;50.928;6.376;2022-11-20T18:21:29;7.60;99.90
16477;DHT22;8349;50.928;6.376;2022-11-20T18:23:56;7.60;99.90
16477;DHT22;8349;50.928;6.376;2022-11-20T18:26:25;7.60;99.90
16477;DHT22;8349;50.928;6.376;2022-11-20T18:28:52;7.60;99.90
16477;DHT22;8349;50.928;6.376;2022-11-20T18:31:19;7.60;99.90
16477;DHT22;8349;50.928;6.376;2022-11-20T18:33:45;7.60;99.90
16477;DHT22;8349;50.928;6.376;2022-11-20T18:36:13;7.70;99.90
16477;DHT22;8349;50.928;6.376;2022-11-20T18:38:40;7.70;99.90
16477;DHT22;8349;50.928;6.376;2022-11-20T18:41:09;7.80;99.90
16477;DHT22;8349;50.928;6.376;2022-11-20T18:43:57;7.80;99.90
16477;DHT22;8349;50.928;6.376;2022-11-20T18:46:53;7.80;99.90
16477;DHT22;8349;50.928;6.376;2022-11-20T18:49:20;7.80;99.90
16477;DHT22;8349;50.928;6.376;2022-11-20T18:51:47;7.80;99.90
16477;DHT22;8349;50.928;6.376;2022-11-20T18:54:14;7.80;99.90
16477;DHT22;8349;50.928;6.376;2022-11-20T18:56:40;7.90;99.90
16477;DHT22;8349;50.928;6.376;2022-11-20T18:59:09;7.90;99.90
16477;DHT22;8349;50.928;6.376;2022-11-20T19:01:36;8.00;99.90
16477;DHT22;8349;50.928;6.376;2022-11-20T19:04:04;8.00;99.90
16477;DHT22;8349;50.928;6.376;2022-11-20T19:06:31;8.00;99.90
16477;DHT22;8349;50.928;6.376;2022-11-20T19:08:58;8.00;99.90
16477;DHT22;8349;50.928;6.376;2022-11-20T19:11:25;8.10;99.90
16477;DHT22;8349;50.928;6.376;2022-11-20T19:13:51;8.10;99.90
16477;DHT22;8349;50.928;6.376;2022-11-20T19:16:20;8.10;99.90
16477;DHT22;8349;50.928;6.376;2022-11-20T19:18:47;8.10;99.90
16477;DHT22;8349;50.928;6.376;2022-11-20T19:21:15;8.10;99.90
16477;DHT22;8349;50.928;6.376;2022-11-20T19:23:42;8.10;99.90
16477;DHT22;8349;50.928;6.376;2022-11-20T19:26:08;8.00;99.90
16477;DHT22;8349;50.928;6.376;2022-11-20T19:28:36;8.00;99.90
16477;DHT22;8349;50.928;6.376;2022-11-20T19:31:03;8.00;99.90
16477;DHT22;8349;50.928;6.376;2022-11-20T19:33:32;8.00;99.90
16477;DHT22;8349;50.928;6.376;2022-11-20T19:36:06;8.10;99.90
16477;DHT22;8349;50.928;6.376;2022-11-20T19:38:33;8.10;99.90
16477;DHT22;8349;50.928;6.376;2022-11-20T19:41:00;8.10;99.90
16477;DHT22;8349;50.928;6.376;2022-11-20T19:43:27;8.10;99.90
16477;DHT22;8349;50.928;6.376;2022-11-20T19:45:53;8.10;99.90
16477;DHT22;8349;50.928;6.376;2022-11-20T19:48:20;8.10;99.90
16477;DHT22;8349;50.928;6.376;2022-11-20T19:50:48;8.10;99.90
16477;DHT22;8349;50.928;6.376;2022-11-20T19:53:15;8.10;99.90
16477;DHT22;8349;50.928;6.376;2022-11-20T19:55:53;8.10;99.90
16477;DHT22;8349;50.928;6.376;2022-11-20T19:58:19;8.00;99.90
16477;DHT22;8349;50.928;6.376;2022-11-20T20:00:46;8.00;99.90
16477;DHT22;8349;50.928;6.376;2022-11-20T20:03:13;8.00;99.90
16477;DHT22;8349;50.928;6.376;2022-11-20T20:05:40;7.90;99.90
16477;DHT22;8349;50.928;6.376;2022-11-20T20:08:08;7.90;99.90
16477;DHT22;8349;50.928;6.376;2022-11-20T20:10:35;8.00;99.90
16477;DHT22;8349;50.928;6.376;2022-11-20T20:13:02;8.00;99.90
16477;DHT22;8349;50.928;6.376;2022-11-20T20:15:29;8.00;99.90
16477;DHT22;8349;50.928;6.376;2022-11-20T20:17:56;7.90;99.90
16477;DHT22;8349;50.928;6.376;2022-11-20T20:20:23;7.90;99.90
16477;DHT22;8349;50.928;6.376;2022-11-20T20:22:50;7.90;99.90